Time;durP1;ratioP1;P1;durP2;ratioP2;P2;SDS_P1;SDS_P2;PMS_P1;PMS_P2;Temp;Humidity;BMP_temperature;BMP_pressure;BME280_temperature;BME280_humidity;BME280_pressure;Samples;Min_cycle;Max_cycle;Signal;HPM_P1;HPM_P2
2022/04/21 00:00:42;;;;;;;7.07;4.78;;;21.90;55.60;;;;;;5076196;28;20076;-68
2022/04/21 00:03:08;;;;;;;5.68;4.20;;;21.80;55.40;;;;;;5076013;28;20045;-68
2022/04/21 00:05:35;;;;;;;6.78;4.18;;;21.90;55.60;;;;;;5076295;28;20036;-68
2022/04/21 00:08:02;;;;;;;7.53;4.38;;;21.90;55.50;;;;;;5076457;28;20109;-68
2022/04/21 00:10:29;;;;;;;9.57;4.82;;;21.80;55.50;;;;;;5075989;28;20041;-68
2022/04/21 00:12:55;;;;;;;5.00;4.47;;;21.90;55.50;;;;;;5076202;28;20052;-68
2022/04/21 00:15:22;;;;;;;6.43;4.15;;;21.80;55.30;;;;;;5076184;28;20037;-68
2022/04/21 00:17:48;;;;;;;8.82;5.07;;;21.80;55.40;;;;;;5076135;28;20123;-68
2022/04/21 00:20:14;;;;;;;7.50;4.38;;;22.00;55.50;;;;;;5076122;28;20044;-68
2022/04/21 00:25:29;;;;;;;4.80;3.67;;;22.00;55.40;;;;;;5075963;28;20037;-68
2022/04/21 00:27:55;;;;;;;7.32;4.35;;;22.00;55.30;;;;;;5076248;28;20033;-68
2022/04/21 00:30:22;;;;;;;4.80;4.10;;;22.00;55.20;;;;;;5075903;28;20040;-68
2022/04/21 00:32:48;;;;;;;5.57;4.30;;;22.00;55.30;;;;;;5075645;28;20037;-68
2022/04/21 00:35:16;;;;;;;5.95;4.25;;;22.10;55.30;;;;;;5075897;28;20032;-69
2022/04/21 00:37:45;;;;;;;6.38;4.03;;;22.00;55.20;;;;;;5075957;28;20037;-68
2022/04/21 00:40:12;;;;;;;5.68;3.95;;;22.10;55.20;;;;;;5075634;28;20064;-68
2022/04/21 00:42:38;;;;;;;5.68;4.30;;;22.20;55.10;;;;;;5075618;28;20053;-68
2022/04/21 00:45:05;;;;;;;4.80;3.92;;;22.10;55.10;;;;;;5075730;28;20049;-68
2022/04/21 00:47:32;;;;;;;6.80;4.43;;;22.10;55.00;;;;;;5075970;28;20072;-68
2022/04/21 00:49:58;;;;;;;6.95;4.60;;;22.10;55.00;;;;;;5075969;28;20041;-68
2022/04/21 00:52:25;;;;;;;8.18;4.95;;;22.10;55.00;;;;;;5078175;28;20066;-68
2022/04/21 00:54:52;;;;;;;8.05;4.50;;;22.20;55.00;;;;;;5079460;28;20060;-68
2022/04/21 00:57:19;;;;;;;5.47;4.07;;;22.10;54.90;;;;;;5079332;28;20063;-68
2022/04/21 00:59:46;;;;;;;7.57;4.85;;;22.10;54.90;;;;;;5079101;28;20144;-68
2022/04/21 01:04:59;;;;;;;6.35;4.63;;;22.20;54.80;;;;;;5079301;28;20052;-68
2022/04/21 01:07:25;;;;;;;5.65;4.28;;;22.30;54.80;;;;;;5079158;28;20041;-68
2022/04/21 01:09:55;;;;;;;7.63;4.18;;;22.30;54.80;;;;;;5079280;28;20070;-69
2022/04/21 01:12:23;;;;;;;8.93;4.55;;;22.30;54.80;;;;;;5079126;28;20037;-68
2022/04/21 01:14:49;;;;;;;6.05;4.50;;;22.30;54.80;;;;;;5078896;28;20078;-68
2022/04/21 01:17:15;;;;;;;6.28;4.53;;;22.30;54.90;;;;;;5079183;28;20033;-68
2022/04/21 01:19:41;;;;;;;7.47;4.75;;;22.30;54.80;;;;;;5079051;28;20036;-68
2022/04/21 01:22:10;;;;;;;7.78;4.65;;;22.40;54.80;;;;;;5078788;28;20072;-68
2022/04/21 01:24:36;;;;;;;6.80;4.35;;;22.20;54.70;;;;;;5078695;28;20047;-68
2022/04/21 01:27:03;;;;;;;7.00;4.53;;;22.30;54.80;;;;;;5078652;28;20060;-68
2022/04/21 01:29:28;;;;;;;6.20;4.65;;;22.30;54.80;;;;;;5078786;28;20041;-69
2022/04/21 01:31:55;;;;;;;7.13;4.85;;;22.30;54.70;;;;;;5078581;28;20075;-69
2022/04/21 01:34:21;;;;;;;5.15;4.65;;;22.30;54.70;;;;;;5078552;28;20056;-68
2022/04/21 01:42:18;;;;;;;5.47;4.30;;;22.30;54.70;;;;;;5078103;28;20064;-69
2022/04/21 01:44:44;;;;;;;6.50;4.68;;;22.40;54.50;;;;;;5078536;28;20051;-68
2022/04/21 01:47:11;;;;;;;8.52;4.57;;;22.40;54.30;;;;;;5078502;28;20033;-68
2022/04/21 01:49:37;;;;;;;5.18;4.43;;;22.30;54.30;;;;;;5078279;28;20055;-68
2022/04/21 01:52:04;;;;;;;5.72;4.22;;;22.40;54.40;;;;;;5078322;28;20056;-68
2022/04/21 01:54:30;;;;;;;6.93;4.60;;;22.30;54.40;;;;;;5078215;28;20053;-68
2022/04/21 01:56:56;;;;;;;5.03;4.20;;;22.40;54.50;;;;;;5078220;28;20045;-69
2022/04/21 01:59:22;;;;;;;5.78;3.92;;;22.30;54.50;;;;;;5078231;28;20047;-68
2022/04/21 02:01:48;;;;;;;4.60;4.13;;;22.30;54.50;;;;;;5077830;28;20052;-68
2022/04/21 02:04:15;;;;;;;6.07;4.25;;;22.40;54.40;;;;;;5077525;28;20043;-69
2022/04/21 02:06:41;;;;;;;6.72;4.32;;;22.50;54.40;;;;;;5078116;28;20044;-68
2022/04/21 02:09:07;;;;;;;4.72;4.07;;;22.40;54.20;;;;;;5077949;28;20071;-68
2022/04/21 02:11:34;;;;;;;7.13;4.53;;;22.50;54.10;;;;;;5077966;28;20067;-69
2022/04/21 02:14:00;;;;;;;9.60;4.43;;;22.50;54.30;;;;;;5077774;28;20053;-68
2022/04/21 02:16:26;;;;;;;8.43;4.15;;;22.40;54.30;;;;;;5077652;28;20043;-68
2022/04/21 02:18:52;;;;;;;7.28;4.70;;;22.40;54.40;;;;;;5077907;28;20079;-68
2022/04/21 02:21:18;;;;;;;7.03;4.93;;;22.50;54.30;;;;;;5077832;28;20033;-68
2022/04/21 02:23:44;;;;;;;7.90;4.22;;;22.50;54.40;;;;;;5077548;28;20048;-69
2022/04/21 02:26:11;;;;;;;5.38;4.03;;;22.40;54.30;;;;;;5077708;28;20029;-68
2022/04/21 02:28:38;;;;;;;4.72;4.03;;;22.40;54.40;;;;;;5077777;28;20049;-68
2022/04/21 02:31:04;;;;;;;6.63;4.57;;;22.30;54.50;;;;;;5077317;28;20040;-68
2022/04/21 02:33:31;;;;;;;5.60;4.30;;;22.30;54.60;;;;;;5077283;28;20069;-68
2022/04/21 02:35:57;;;;;;;7.82;4.32;;;22.30;54.70;;;;;;5077310;28;20056;-68
2022/04/21 02:38:23;;;;;;;7.97;4.35;;;22.10;54.70;;;;;;5077421;28;20029;-68
2022/04/21 02:40:49;;;;;;;7.00;4.57;;;22.20;54.80;;;;;;5077383;28;20033;-68
2022/04/21 02:43:16;;;;;;;10.32;4.88;;;22.10;55.00;;;;;;5077144;28;20084;-68
2022/04/21 02:45:43;;;;;;;7.05;4.28;;;22.10;54.90;;;;;;5077153;28;20052;-68
2022/04/21 02:48:09;;;;;;;5.50;4.00;;;22.10;54.90;;;;;;5077050;28;20051;-68
2022/04/21 02:50:36;;;;;;;5.82;3.85;;;22.10;54.90;;;;;;5077394;28;20139;-68
2022/04/21 02:53:02;;;;;;;4.57;3.72;;;22.20;54.80;;;;;;5076966;28;20052;-68
2022/04/21 02:58:14;;;;;;;6.65;4.47;;;22.40;54.60;;;;;;5077055;28;20052;-68
2022/04/21 03:00:41;;;;;;;5.85;4.30;;;22.30;54.30;;;;;;5077090;28;20061;-68
2022/04/21 03:03:07;;;;;;;4.88;4.35;;;22.20;54.20;;;;;;5077033;28;20112;-68
2022/04/21 03:05:33;;;;;;;4.82;4.28;;;22.30;54.20;;;;;;5076862;28;20075;-68
2022/04/21 03:07:59;;;;;;;5.03;4.15;;;22.40;54.20;;;;;;5076927;28;20056;-68
2022/04/21 03:10:25;;;;;;;4.60;3.88;;;22.20;54.10;;;;;;5076059;28;20033;-68
2022/04/21 03:12:51;;;;;;;5.53;4.10;;;22.20;54.30;;;;;;5076588;28;20045;-69
2022/04/21 03:15:18;;;;;;;4.05;3.65;;;22.10;54.40;;;;;;5076310;28;20059;-68
2022/04/21 03:17:44;;;;;;;5.03;4.13;;;22.20;54.40;;;;;;5076866;28;20037;-68
2022/04/21 03:24:18;;;;;;;6.25;4.43;;;22.10;54.60;;;;;;5076674;28;20040;-68
2022/04/21 03:25:45;;;;;;;7.28;4.30;;;22.00;54.60;;;;;;5076726;28;20079;-68
2022/04/21 03:28:11;;;;;;;6.70;4.47;;;22.00;54.70;;;;;;5076645;28;20040;-68
2022/04/21 03:30:38;;;;;;;7.40;4.15;;;21.90;54.70;;;;;;5076696;28;20048;-68
2022/04/21 03:33:04;;;;;;;7.25;4.78;;;22.20;54.70;;;;;;5076365;28;20040;-69
2022/04/21 03:35:30;;;;;;;6.88;4.22;;;22.10;54.40;;;;;;5076492;28;20040;-68
2022/04/21 03:37:56;;;;;;;5.97;4.25;;;22.00;54.20;;;;;;5076000;28;20123;-68
2022/04/21 03:40:22;;;;;;;9.50;3.95;;;22.20;54.30;;;;;;5076325;28;20071;-69
2022/04/21 03:42:48;;;;;;;5.57;4.63;;;22.10;54.40;;;;;;5076261;28;20069;-68
2022/04/21 03:45:15;;;;;;;5.72;4.35;;;22.10;54.40;;;;;;5076370;28;20045;-68
2022/04/21 03:47:41;;;;;;;5.25;3.88;;;22.20;54.40;;;;;;5076236;28;20049;-68
2022/04/21 03:50:08;;;;;;;6.35;3.63;;;22.10;54.50;;;;;;5076306;28;20051;-68
2022/04/21 03:52:34;;;;;;;5.10;3.90;;;22.20;54.10;;;;;;5076185;28;20044;-68
2022/04/21 03:55:01;;;;;;;6.90;3.58;;;22.40;53.70;;;;;;5076016;28;20053;-67
2022/04/21 03:57:28;;;;;;;5.70;4.40;;;22.40;53.70;;;;;;5076394;28;20052;-67
2022/04/21 03:59:54;;;;;;;6.47;3.70;;;22.30;53.90;;;;;;5076204;28;20041;-68
2022/04/21 04:02:20;;;;;;;6.05;3.47;;;22.40;53.80;;;;;;5075463;28;20048;-68
2022/04/21 04:04:47;;;;;;;7.53;4.78;;;22.50;53.80;;;;;;5075457;28;20045;-67
2022/04/21 04:12:43;;;;;;;4.90;3.38;;;22.40;55.90;;;;;;5074411;28;20037;-69
2022/04/21 04:15:10;;;;;;;5.07;4.00;;;22.60;57.00;;;;;;5075204;28;20051;-69
2022/04/21 04:17:36;;;;;;;5.72;3.63;;;23.00;58.50;;;;;;5075545;28;20041;-69
2022/04/21 04:20:04;;;;;;;5.57;4.40;;;23.20;57.80;;;;;;5075568;28;20197;-69
2022/04/21 04:22:35;;;;;;;6.28;4.25;;;23.40;57.80;;;;;;5075468;28;20033;-69
2022/04/21 04:25:02;;;;;;;5.75;4.25;;;23.30;52.80;;;;;;5075381;28;20063;-70
2022/04/21 04:27:29;;;;;;;4.88;4.00;;;23.30;51.50;;;;;;5078215;28;20040;-70
2022/04/21 04:29:55;;;;;;;6.78;4.35;;;23.30;50.30;;;;;;5079277;28;20062;-69
2022/04/21 04:32:21;;;;;;;4.57;4.07;;;23.20;50.20;;;;;;5079180;28;20040;-69
2022/04/21 04:34:47;;;;;;;7.60;4.15;;;23.30;49.60;;;;;;5079081;28;20053;-69
2022/04/21 04:37:13;;;;;;;4.78;3.92;;;23.20;49.10;;;;;;5078968;28;20034;-68
2022/04/21 04:39:39;;;;;;;5.63;3.97;;;23.20;48.60;;;;;;5079023;28;20041;-68
2022/04/21 04:42:17;;;;;;;8.05;3.72;;;23.20;48.10;;;;;;5079015;28;20041;-69
2022/04/21 04:44:44;;;;;;;5.57;4.13;;;23.20;47.70;;;;;;5078379;28;20113;-69
2022/04/21 04:47:10;;;;;;;7.93;4.22;;;23.20;47.20;;;;;;5078516;28;20041;-68
2022/04/21 04:49:36;;;;;;;4.97;3.65;;;23.30;47.10;;;;;;5077865;28;20044;-68
2022/04/21 04:52:03;;;;;;;5.18;3.95;;;23.20;46.90;;;;;;5078143;28;20075;-68
2022/04/21 04:54:30;;;;;;;5.38;4.43;;;23.20;47.20;;;;;;5078698;28;20056;-68
2022/04/21 04:56:56;;;;;;;8.18;4.30;;;23.20;47.70;;;;;;5078887;28;20410;-67
2022/04/21 04:59:22;;;;;;;10.10;4.80;;;23.20;48.10;;;;;;5078612;28;20037;-68
2022/04/21 05:01:48;;;;;;;5.05;4.57;;;23.10;48.40;;;;;;5078757;28;20103;-68
2022/04/21 05:04:17;;;;;;;1.05;1.05;;;23.20;48.30;;;;;;5078699;28;20037;-69
2022/04/21 05:06:48;;;;;;;4.40;3.03;;;23.20;48.80;;;;;;5078784;28;20041;-68
2022/04/21 05:09:19;;;;;;;6.13;4.28;;;23.10;46.80;;;;;;5078297;28;20045;-70
2022/04/21 05:11:50;;;;;;;3.90;2.88;;;23.00;45.20;;;;;;5077976;28;20045;-68
2022/04/21 05:14:17;;;;;;;4.10;3.28;;;23.10;45.30;;;;;;5078030;28;20041;-68
2022/04/21 05:16:43;;;;;;;4.22;3.58;;;23.00;44.30;;;;;;5077996;28;20100;-68
2022/04/21 05:19:12;;;;;;;5.75;3.53;;;23.00;46.20;;;;;;5077765;28;20043;-67
2022/04/21 05:21:39;;;;;;;5.85;4.28;;;23.10;46.30;;;;;;5075359;28;20036;-68
2022/04/21 05:24:06;;;;;;;6.63;3.38;;;23.20;45.00;;;;;;5077982;28;20044;-68
2022/04/21 05:26:33;;;;;;;5.78;4.30;;;23.20;46.00;;;;;;5077830;28;20047;-68
2022/04/21 05:30:55;;;;;;;6.65;4.65;;;23.20;44.00;;;;;;5074418;28;20045;-68
2022/04/21 05:31:53;;;;;;;5.25;3.58;;;23.20;43.00;;;;;;5077101;28;20063;-70
2022/04/21 05:34:20;;;;;;;6.78;4.35;;;23.20;42.70;;;;;;5077160;28;20041;-70
2022/04/21 05:36:46;;;;;;;7.45;5.25;;;23.30;43.10;;;;;;5073212;28;20037;-68
2022/04/21 05:39:13;;;;;;;11.10;4.88;;;23.20;47.60;;;;;;5077594;28;20045;-69
2022/04/21 05:41:39;;;;;;;8.90;5.05;;;23.30;54.20;;;;;;5077483;28;20104;-68
2022/04/21 05:44:06;;;;;;;7.07;5.03;;;23.30;53.10;;;;;;5077470;28;20395;-71
2022/04/21 05:46:33;;;;;;;7.07;5.18;;;23.40;52.50;;;;;;5077736;28;20124;-69
2022/04/21 05:49:00;;;;;;;7.00;5.30;;;23.20;52.80;;;;;;5077545;28;20043;-70
2022/04/21 05:51:26;;;;;;;11.65;4.93;;;23.20;53.30;;;;;;5075820;28;20074;-69
2022/04/21 05:53:53;;;;;;;7.00;4.53;;;23.20;53.50;;;;;;5077436;28;20071;-69
2022/04/21 05:56:20;;;;;;;11.43;5.63;;;23.00;53.90;;;;;;5077490;28;20041;-68
2022/04/21 05:58:46;;;;;;;6.97;4.88;;;23.00;53.90;;;;;;5077250;28;20060;-69
2022/04/21 06:01:13;;;;;;;9.00;5.47;;;23.10;54.60;;;;;;5077100;28;20037;-69
2022/04/21 06:03:39;;;;;;;11.63;5.30;;;23.10;54.80;;;;;;5077149;28;20032;-69
2022/04/21 06:06:06;;;;;;;8.63;6.00;;;23.00;55.10;;;;;;5077260;28;20044;-70
2022/04/21 06:08:32;;;;;;;7.82;4.95;;;23.00;55.60;;;;;;5077078;28;20028;-69
2022/04/21 06:10:58;;;;;;;9.35;5.00;;;22.80;55.80;;;;;;5077026;28;20056;-70
2022/04/21 06:13:25;;;;;;;9.45;5.82;;;23.00;56.10;;;;;;5077154;28;20052;-70
2022/04/21 06:15:52;;;;;;;6.00;5.05;;;22.90;55.10;;;;;;5077080;28;20115;-70
2022/04/21 06:18:18;;;;;;;10.75;5.40;;;23.00;56.00;;;;;;5077203;28;20044;-71
2022/04/21 06:20:48;;;;;;;8.10;5.80;;;23.00;56.20;;;;;;5077089;28;20106;-71
2022/04/21 06:23:14;;;;;;;5.75;4.70;;;23.00;55.90;;;;;;5077067;28;20050;-70
2022/04/21 06:25:42;;;;;;;8.75;5.65;;;23.00;56.10;;;;;;5077076;28;20059;-71
2022/04/21 06:28:11;;;;;;;10.30;5.82;;;22.90;56.00;;;;;;5077053;28;20067;-70
2022/04/21 06:30:38;;;;;;;9.95;5.53;;;23.00;56.50;;;;;;5076775;28;20071;-72
2022/04/21 06:33:05;;;;;;;11.68;5.85;;;23.00;56.30;;;;;;5076749;28;20047;-71
2022/04/21 06:35:31;;;;;;;8.90;5.20;;;23.00;56.40;;;;;;5076742;28;20033;-69
2022/04/21 06:37:58;;;;;;;9.90;6.28;;;23.00;56.40;;;;;;5076750;28;20047;-69
2022/04/21 06:40:24;;;;;;;7.05;5.28;;;22.80;56.50;;;;;;5076690;28;20032;-69
2022/04/21 06:42:50;;;;;;;7.82;5.93;;;22.80;56.80;;;;;;5076231;28;20104;-69
2022/04/21 06:48:02;;;;;;;9.50;5.72;;;22.80;56.50;;;;;;5075707;28;20059;-70
2022/04/21 06:50:33;;;;;;;9.02;5.93;;;23.00;56.50;;;;;;5074932;28;20045;-69
2022/04/21 06:53:07;;;;;;;8.40;5.93;;;22.90;56.50;;;;;;5076683;28;20037;-69
2022/04/21 06:55:34;;;;;;;11.52;6.13;;;22.80;56.50;;;;;;5076406;28;20060;-69
2022/04/21 06:58:01;;;;;;;10.05;5.57;;;22.90;56.70;;;;;;5076260;28;20049;-69
2022/04/21 07:00:28;;;;;;;10.10;6.18;;;22.90;56.70;;;;;;5076061;28;20100;-69
2022/04/21 07:02:57;;;;;;;7.68;3.05;;;22.80;56.70;;;;;;5076408;28;20090;-75
2022/04/21 07:05:26;;;;;;;10.85;5.65;;;22.80;56.80;;;;;;5076163;28;20037;-75
2022/04/21 07:07:52;;;;;;;7.47;4.13;;;22.90;56.70;;;;;;5076296;28;20067;-77
2022/04/21 07:10:20;;;;;;;9.65;5.43;;;23.00;54.80;;;;;;5076021;28;20036;-79
2022/04/21 07:12:46;;;;;;;11.70;6.65;;;23.00;52.50;;;;;;5075974;28;20706;-79
2022/04/21 07:15:14;;;;;;;12.80;7.50;;;23.10;51.20;;;;;;5075754;28;20541;-79
2022/04/21 07:17:41;;;;;;;10.65;6.35;;;23.10;49.70;;;;;;5076107;28;20021;-79
2022/04/21 07:20:09;;;;;;;11.60;6.80;;;23.00;48.00;;;;;;5076192;28;20114;-77
2022/04/21 07:22:36;;;;;;;12.20;6.57;;;23.10;47.30;;;;;;5075932;28;20048;-78
2022/04/21 07:25:05;;;;;;;13.18;7.20;;;23.10;44.30;;;;;;5075696;28;20048;-76
2022/04/21 07:27:32;;;;;;;3.97;2.92;;;23.00;44.10;;;;;;5075830;28;20049;-72
2022/04/21 07:29:58;;;;;;;9.50;5.53;;;23.00;42.70;;;;;;5075405;28;20071;-73
2022/04/21 07:32:24;;;;;;;9.50;6.82;;;23.10;42.40;;;;;;5075722;28;20044;-71
2022/04/21 07:34:51;;;;;;;5.32;3.90;;;23.10;41.80;;;;;;5075317;28;20045;-72
2022/04/21 07:37:17;;;;;;;13.07;8.02;;;23.10;42.10;;;;;;5075381;28;20037;-71
2022/04/21 07:39:43;;;;;;;10.23;7.18;;;23.00;41.20;;;;;;5075495;28;20036;-72
2022/04/21 07:42:10;;;;;;;10.82;5.95;;;23.10;43.20;;;;;;5075444;28;20061;-71
2022/04/21 07:44:37;;;;;;;13.10;6.57;;;23.00;43.00;;;;;;5075184;28;20036;-70
2022/04/21 07:47:07;;;;;;;10.82;6.75;;;23.10;43.30;;;;;;5074628;28;20072;-71
2022/04/21 07:49:46;;;;;;;11.88;5.80;;;23.00;43.10;;;;;;5074274;28;20029;-72
2022/04/21 07:55:10;;;;;;;13.30;8.15;;;23.00;43.50;;;;;;5074878;28;20045;-71
2022/04/21 07:57:36;;;;;;;11.68;7.15;;;23.00;42.50;;;;;;5075296;28;20052;-71
2022/04/21 08:00:04;;;;;;;16.25;6.93;;;23.10;42.30;;;;;;5075657;28;20041;-70
2022/04/21 08:02:41;;;;;;;12.57;7.70;;;23.10;42.30;;;;;;5079387;28;20048;-70
2022/04/21 08:05:11;;;;;;;8.00;5.78;;;23.10;42.60;;;;;;5079469;28;20044;-71
2022/04/21 08:07:37;;;;;;;11.40;7.20;;;23.00;42.20;;;;;;5079526;28;20074;-69
2022/04/21 08:10:05;;;;;;;10.95;7.50;;;23.10;41.90;;;;;;5079671;28;20049;-69
2022/04/21 08:12:45;;;;;;;11.43;7.43;;;23.00;41.60;;;;;;5079377;28;20037;-69
2022/04/21 08:15:21;;;;;;;9.55;7.25;;;23.20;39.00;;;;;;5078988;28;20052;-68
2022/04/21 08:17:47;;;;;;;8.13;6.15;;;23.10;37.90;;;;;;5078384;28;20093;-68
2022/04/21 08:20:13;;;;;;;10.93;7.20;;;23.20;36.50;;;;;;5079415;28;20067;-68
2022/04/21 08:22:39;;;;;;;13.88;7.35;;;23.20;36.60;;;;;;5079325;28;20056;-68
2022/04/21 08:33:22;;;;;;;11.27;7.10;;;23.50;44.60;;;;;;5079164;28;20059;-69
2022/04/21 08:35:49;;;;;;;9.38;6.30;;;23.40;44.60;;;;;;5078800;28;20032;-69
2022/04/21 08:38:17;;;;;;;6.40;5.28;;;23.40;44.50;;;;;;5079234;28;20048;-68
2022/04/21 08:40:53;;;;;;;5.78;4.28;;;23.40;44.10;;;;;;5078729;28;20071;-68
2022/04/21 08:43:20;;;;;;;6.35;4.88;;;23.50;44.30;;;;;;5078561;28;20101;-68
2022/04/21 08:45:48;;;;;;;7.80;5.10;;;23.40;44.60;;;;;;5078258;28;20059;-69
2022/04/21 08:48:18;;;;;;;6.47;5.38;;;23.40;44.70;;;;;;5078811;28;20092;-69
2022/04/21 08:50:46;;;;;;;6.15;4.53;;;23.40;45.10;;;;;;5078500;28;20033;-69
2022/04/21 08:53:15;;;;;;;5.93;4.45;;;23.40;40.40;;;;;;5077835;28;20071;-68
2022/04/21 08:55:42;;;;;;;10.73;6.10;;;23.40;39.30;;;;;;5077686;28;20120;-69
2022/04/21 08:58:08;;;;;;;11.02;5.65;;;23.50;44.40;;;;;;5078734;28;20056;-69
2022/04/21 09:00:34;;;;;;;9.18;5.65;;;23.40;39.70;;;;;;5078612;28;20037;-68
2022/04/21 09:03:03;;;;;;;8.93;4.90;;;23.50;38.30;;;;;;5078240;28;20527;-68
2022/04/21 09:05:30;;;;;;;4.70;2.65;;;23.40;37.10;;;;;;5078235;28;20121;-68
2022/04/21 09:08:00;;;;;;;3.00;1.77;;;23.40;40.40;;;;;;5078621;28;20048;-70
2022/04/21 09:10:33;;;;;;;4.28;1.88;;;23.50;43.60;;;;;;5078567;28;20100;-70
2022/04/21 09:13:01;;;;;;;1.80;1.70;;;23.40;43.20;;;;;;5077561;28;20044;-69
2022/04/21 09:15:31;;;;;;;4.78;3.10;;;23.50;42.40;;;;;;5078237;28;20041;-69
2022/04/21 09:17:59;;;;;;;1.95;1.33;;;23.60;44.80;;;;;;5078455;28;20049;-68
2022/04/21 09:20:33;;;;;;;6.47;4.07;;;23.60;44.60;;;;;;5078398;28;20045;-69
2022/04/21 09:23:01;;;;;;;7.10;3.22;;;23.60;43.20;;;;;;5077688;28;20032;-68
2022/04/21 09:25:42;;;;;;;7.13;4.22;;;23.60;43.30;;;;;;5077950;28;20045;-68
2022/04/21 09:28:22;;;;;;;4.00;2.90;;;23.60;42.80;;;;;;5078278;28;20048;-68
2022/04/21 09:30:55;;;;;;;2.17;1.33;;;23.60;43.30;;;;;;5077982;28;20045;-68
2022/04/21 09:33:44;;;;;;;8.57;3.78;;;23.60;43.70;;;;;;5077865;28;20033;-67
2022/04/21 09:36:11;;;;;;;2.70;2.50;;;23.50;42.20;;;;;;5077903;28;20037;-68
2022/04/21 09:38:37;;;;;;;5.53;2.92;;;23.60;41.80;;;;;;5077913;28;20057;-68
2022/04/21 09:41:12;;;;;;;2.97;2.72;;;23.50;43.40;;;;;;5077122;28;20075;-75
2022/04/21 09:43:39;;;;;;;7.97;4.30;;;23.60;45.20;;;;;;5077787;28;20043;-68
2022/04/21 09:46:22;;;;;;;6.40;3.90;;;23.90;46.00;;;;;;5076978;28;20073;-68
2022/04/21 09:48:55;;;;;;;3.85;3.20;;;23.90;43.80;;;;;;5077897;28;20105;-68
2022/04/21 09:51:27;;;;;;;4.28;3.70;;;23.60;36.60;;;;;;5077805;28;20111;-69
2022/04/21 09:53:59;;;;;;;4.93;3.40;;;23.60;36.60;;;;;;5077690;28;20045;-69
2022/04/21 09:56:34;;;;;;;4.55;3.40;;;23.50;35.50;;;;;;5077806;28;20033;-69
2022/04/21 09:59:03;;;;;;;5.18;3.50;;;23.50;34.70;;;;;;5077594;28;20071;-69
2022/04/21 10:01:29;;;;;;;4.30;3.30;;;23.30;35.10;;;;;;5077580;28;20040;-68
2022/04/21 10:03:58;;;;;;;4.32;3.50;;;23.40;39.70;;;;;;5077652;28;20098;-68
2022/04/21 10:06:26;;;;;;;6.50;4.07;;;23.70;50.20;;;;;;5077197;28;20060;-69
2022/04/21 10:08:52;;;;;;;6.22;3.50;;;24.50;49.60;;;;;;5077553;28;20055;-68
2022/04/21 10:11:25;;;;;;;5.05;4.30;;;25.00;44.40;;;;;;5077394;28;20043;-69
2022/04/21 10:13:56;;;;;;;7.18;3.22;;;24.90;43.70;;;;;;5077253;28;20049;-69
2022/04/21 10:16:26;;;;;;;7.32;3.80;;;24.80;43.60;;;;;;5076900;28;20136;-69
2022/04/21 10:18:55;;;;;;;4.43;3.63;;;24.70;43.50;;;;;;5077254;28;20032;-68
2022/04/21 10:21:32;;;;;;;6.93;3.30;;;24.60;43.80;;;;;;5076373;28;20079;-69
2022/04/21 10:23:59;;;;;;;5.90;3.50;;;24.50;44.20;;;;;;5077239;28;20064;-68
2022/04/21 10:26:36;;;;;;;4.63;3.22;;;24.50;44.70;;;;;;5077002;28;20045;-69
2022/04/21 10:29:14;;;;;;;4.68;3.67;;;24.30;44.90;;;;;;5076969;28;20052;-69
2022/04/21 10:31:51;;;;;;;4.47;3.53;;;24.30;45.20;;;;;;5076704;28;20045;-69
2022/04/21 10:34:40;;;;;;;6.72;3.33;;;24.30;45.30;;;;;;5076201;28;20060;-70
2022/04/21 10:37:15;;;;;;;3.33;3.03;;;24.10;45.30;;;;;;5077037;28;20101;-69
2022/04/21 10:40:02;;;;;;;6.00;3.65;;;24.10;45.90;;;;;;5076608;28;20037;-69
2022/04/21 10:42:29;;;;;;;3.88;3.15;;;24.10;46.20;;;;;;5076480;28;20056;-68
2022/04/21 10:44:55;;;;;;;4.68;3.38;;;24.00;46.10;;;;;;5076783;28;20051;-68
2022/04/21 10:47:30;;;;;;;3.47;2.88;;;23.90;46.30;;;;;;5076754;28;20100;-69
2022/04/21 10:50:20;;;;;;;3.63;3.10;;;23.90;46.50;;;;;;5076657;28;20049;-69
2022/04/21 10:58:35;;;;;;;4.53;3.53;;;23.90;47.10;;;;;;5076197;28;20075;-69
2022/04/21 11:01:19;;;;;;;6.25;3.83;;;23.90;47.20;;;;;;5076517;28;20041;-69
2022/04/21 11:04:08;;;;;;;4.00;2.90;;;23.80;47.30;;;;;;5076305;28;20056;-69
2022/04/21 11:07:06;;;;;;;4.97;3.40;;;23.80;47.40;;;;;;5076324;28;20433;-68
2022/04/21 11:09:42;;;;;;;6.07;3.47;;;23.90;47.70;;;;;;5076095;28;20048;-68
2022/04/21 11:12:13;;;;;;;2.70;2.50;;;23.80;47.80;;;;;;5076150;28;20029;-69
2022/04/21 11:14:40;;;;;;;3.35;3.05;;;23.70;48.10;;;;;;5076054;28;20044;-69
2022/04/21 11:17:09;;;;;;;4.75;3.22;;;23.80;48.10;;;;;;5075454;28;20040;-70
2022/04/21 11:19:41;;;;;;;3.38;2.92;;;23.80;48.10;;;;;;5075958;28;20047;-69
2022/04/21 11:22:11;;;;;;;4.72;3.22;;;23.80;48.20;;;;;;5075840;28;20037;-69
2022/04/21 11:24:58;;;;;;;4.30;3.20;;;23.60;48.20;;;;;;5075931;28;20051;-69
2022/04/21 11:27:26;;;;;;;5.22;2.95;;;23.60;48.40;;;;;;5076109;28;20044;-69
2022/04/21 11:29:57;;;;;;;6.53;3.35;;;23.70;48.60;;;;;;5076212;28;20037;-69
2022/04/21 11:32:23;;;;;;;3.38;2.97;;;23.60;48.60;;;;;;5075743;28;20029;-69
2022/04/21 11:35:09;;;;;;;3.05;2.75;;;23.60;48.70;;;;;;5075423;28;20064;-69
2022/04/21 11:37:54;;;;;;;4.32;3.47;;;23.60;48.80;;;;;;5075808;28;20057;-70
2022/04/21 11:40:32;;;;;;;4.00;2.90;;;23.60;48.40;;;;;;5076051;28;20064;-71
2022/04/21 11:43:17;;;;;;;3.85;3.22;;;23.60;48.90;;;;;;5075881;28;20037;-71
2022/04/21 11:45:56;;;;;;;5.20;3.00;;;23.60;47.50;;;;;;5075633;28;20117;-70
2022/04/21 11:48:31;;;;;;;10.90;3.08;;;23.60;48.90;;;;;;5075762;28;20056;-72
2022/04/21 11:50:57;;;;;;;4.72;3.25;;;23.50;48.90;;;;;;5076003;28;20049;-69
2022/04/21 11:53:28;;;;;;;4.13;3.40;;;23.50;49.10;;;;;;5075339;28;20094;-70
2022/04/21 11:55:55;;;;;;;6.80;3.15;;;23.50;49.30;;;;;;5075133;28;20043;-71
2022/04/21 11:58:34;;;;;;;4.50;3.13;;;23.50;49.30;;;;;;5075535;28;20033;-71
2022/04/21 12:06:55;;;;;;;4.68;3.05;;;23.50;54.40;;;;;;5075274;28;20057;-71
2022/04/21 12:09:29;;;;;;;17.58;3.80;;;23.50;52.70;;;;;;5073528;28;20100;-70
2022/04/21 12:12:00;;;;;;;2.60;2.40;;;23.50;52.10;;;;;;5073664;28;20074;-71
2022/04/21 12:14:28;;;;;;;3.03;2.55;;;23.60;51.50;;;;;;5073397;28;20040;-69
2022/04/21 12:16:59;;;;;;;4.55;2.10;;;23.50;51.10;;;;;;5073529;28;20063;-71
2022/04/21 12:19:34;;;;;;;4.03;2.45;;;23.50;51.00;;;;;;5073348;28;20041;-70
2022/04/21 12:22:17;;;;;;;6.35;3.08;;;23.50;50.80;;;;;;5073238;28;20112;-70
2022/04/21 12:24:44;;;;;;;;;;;23.60;50.60;;;;;;5073368;28;20097;-72
2022/04/21 12:27:23;;;;;;;2.97;2.53;;;23.50;50.50;;;;;;5074224;28;19909;-70
2022/04/21 12:29:50;;;;;;;3.03;2.53;;;23.50;50.40;;;;;;5075618;28;20045;-71
2022/04/21 12:32:29;;;;;;;3.35;2.53;;;23.40;50.20;;;;;;5075492;28;20037;-70
2022/04/21 12:35:02;;;;;;;5.03;2.50;;;23.40;49.30;;;;;;5075342;28;20056;-71
2022/04/21 12:37:30;;;;;;;4.57;2.63;;;23.40;49.50;;;;;;5075293;28;20037;-71
2022/04/21 12:39:58;;;;;;;4.43;2.95;;;23.30;49.80;;;;;;5075291;28;20051;-70
2022/04/21 12:42:25;;;;;;;6.95;2.97;;;23.40;50.20;;;;;;5074754;28;20125;-71
2022/04/21 12:44:53;;;;;;;3.63;2.58;;;23.30;48.90;;;;;;5075328;28;20131;-71
2022/04/21 12:47:20;;;;;;;7.65;2.70;;;23.40;50.40;;;;;;5076004;28;20040;-70
2022/04/21 12:49:58;;;;;;;5.70;2.65;;;23.40;50.40;;;;;;5078574;28;20721;-70
2022/04/21 12:52:32;;;;;;;3.38;2.10;;;23.30;50.40;;;;;;5078767;28;20041;-72
2022/04/21 12:55:22;;;;;;;3.72;2.08;;;23.50;50.40;;;;;;5078583;28;20060;-70
2022/04/21 12:58:00;;;;;;;2.53;2.33;;;23.30;50.00;;;;;;5074772;28;20037;-70
2022/04/21 13:00:26;;;;;;;2.63;2.20;;;23.40;49.70;;;;;;5089685;28;20033;-70
2022/04/21 13:02:52;;;;;;;7.35;2.80;;;23.30;49.60;;;;;;5097687;28;20108;-70
2022/04/21 13:05:19;;;;;;;3.88;2.70;;;23.40;49.70;;;;;;5098421;28;20047;-71
2022/04/21 13:07:45;;;;;;;2.35;2.13;;;23.50;49.90;;;;;;5098629;28;20041;-70
2022/04/21 13:10:11;;;;;;;1.70;1.55;;;23.50;50.00;;;;;;5097926;28;20032;-71
2022/04/21 13:12:37;;;;;;;5.53;2.75;;;23.50;50.10;;;;;;5097400;28;20048;-70
2022/04/21 13:15:04;;;;;;;3.58;2.22;;;23.40;49.90;;;;;;5097697;28;20060;-71
2022/04/21 13:17:31;;;;;;;4.00;2.63;;;23.40;50.00;;;;;;5098015;28;20048;-71
2022/04/21 13:19:57;;;;;;;3.25;1.98;;;23.30;50.00;;;;;;5098474;28;20055;-70
2022/04/21 13:22:23;;;;;;;8.73;3.17;;;23.30;50.00;;;;;;5098185;28;20103;-70
2022/04/21 13:24:50;;;;;;;8.48;3.08;;;23.30;50.00;;;;;;5098115;28;20040;-71
2022/04/21 13:27:16;;;;;;;3.33;2.13;;;23.30;50.10;;;;;;5098244;28;20040;-71
2022/04/21 13:29:43;;;;;;;2.22;2.03;;;23.40;50.00;;;;;;5098050;28;20136;-71
2022/04/21 13:34:54;;;;;;;3.08;2.50;;;23.30;50.20;;;;;;5077199;28;20041;-70
2022/04/21 13:37:20;;;;;;;3.30;2.60;;;23.30;50.30;;;;;;5077290;28;20036;-71
2022/04/21 13:39:46;;;;;;;2.40;2.00;;;23.40;50.60;;;;;;5077504;28;20040;-70
2022/04/21 13:42:12;;;;;;;4.20;2.30;;;23.30;50.70;;;;;;5077606;28;20079;-70
2022/04/21 13:44:40;;;;;;;4.70;2.80;;;23.30;51.20;;;;;;5076712;28;20045;-69